createdAt,value
2023-02-09T00:01:23.178Z,-3.67
2023-02-09T00:03:51.723Z,-3.66
2023-02-09T00:06:21.370Z,-3.66
2023-02-09T00:08:48.219Z,-3.83
2023-02-09T00:11:19.618Z,-3.99
2023-02-09T00:13:46.127Z,-3.85
2023-02-09T00:16:12.918Z,-4.18
2023-02-09T00:18:39.677Z,-4.06
2023-02-09T00:21:09.316Z,-4.15
2023-02-09T00:23:38.372Z,-4.01
2023-02-09T00:26:08.176Z,-3.95
2023-02-09T00:28:35.057Z,-3.95
2023-02-09T00:31:06.878Z,-4.15
2023-02-09T00:33:33.364Z,-4.30
2023-02-09T00:35:59.737Z,-4.43
2023-02-09T00:38:26.121Z,-4.38
2023-02-09T00:40:52.539Z,-4.49
2023-02-09T00:43:18.875Z,-4.37
2023-02-09T00:45:45.265Z,-4.42
2023-02-09T00:48:11.679Z,-4.48
2023-02-09T00:50:38.038Z,-4.57
2023-02-09T00:53:04.589Z,-4.27
2023-02-09T00:55:31.063Z,-4.49
2023-02-09T00:57:57.505Z,-4.60
2023-02-09T01:00:24.405Z,-4.50
2023-02-09T01:02:50.761Z,-4.32
2023-02-09T01:05:17.264Z,-4.62
2023-02-09T01:07:43.716Z,-4.74
2023-02-09T01:10:10.475Z,-4.69
2023-02-09T01:12:40.033Z,-4.79
2023-02-09T01:15:08.147Z,-4.78
2023-02-09T01:17:34.785Z,-4.83
2023-02-09T01:20:01.230Z,-4.91
2023-02-09T01:22:27.717Z,-4.84
2023-02-09T01:24:54.048Z,-4.80
2023-02-09T01:27:20.485Z,-4.91
2023-02-09T01:29:46.825Z,-4.96
2023-02-09T01:32:13.176Z,-4.97
2023-02-09T01:34:39.690Z,-4.90
2023-02-09T01:37:06.315Z,-5.01
2023-02-09T01:39:33.245Z,-5.07
2023-02-09T01:41:59.636Z,-5.23
2023-02-09T01:44:25.908Z,-5.08
2023-02-09T01:46:52.471Z,-5.03
2023-02-09T01:49:23.324Z,-4.86
2023-02-09T01:51:57.620Z,-4.93
2023-02-09T01:54:31.783Z,-5.01
2023-02-09T01:57:12.090Z,-4.74
2023-02-09T01:59:41.415Z,-4.80
2023-02-09T02:02:09.412Z,-4.98
2023-02-09T02:04:37.181Z,-4.97
2023-02-09T02:07:52.830Z,-4.98
2023-02-09T02:10:19.332Z,-5.07
2023-02-09T02:12:46.057Z,-5.05
2023-02-09T02:15:12.414Z,-5.09
2023-02-09T02:18:00.470Z,-5.27
2023-02-09T02:20:45.146Z,-5.25
2023-02-09T02:23:35.659Z,-5.22
2023-02-09T02:26:32.646Z,-5.27
2023-02-09T02:29:20.264Z,-5.14
2023-02-09T02:32:06.990Z,-5.14
2023-02-09T02:34:42.771Z,-4.89
2023-02-09T02:37:30.724Z,-5.06
2023-02-09T02:40:18.795Z,-5.23
2023-02-09T02:43:17.668Z,-5.23
2023-02-09T02:45:50.371Z,-5.03
2023-02-09T02:48:41.156Z,-5.31
2023-02-09T02:51:17.393Z,-5.31
2023-02-09T02:53:48.930Z,-5.20
2023-02-09T02:56:19.909Z,-5.14
2023-02-09T02:58:49.375Z,-5.22
2023-02-09T03:01:22.111Z,-5.27
2023-02-09T03:03:49.765Z,-5.13
2023-02-09T03:06:17.674Z,-5.06
2023-02-09T03:08:53.748Z,-4.86
2023-02-09T03:11:22.805Z,-4.38
2023-02-09T03:14:04.932Z,-4.67
2023-02-09T03:17:06.730Z,-4.73
2023-02-09T03:19:46.105Z,-4.68
2023-02-09T03:22:16.979Z,-4.84
2023-02-09T03:25:00.001Z,-4.79
2023-02-09T03:27:33.493Z,-4.97
2023-02-09T03:30:04.247Z,-5.07
2023-02-09T03:32:31.738Z,-5.44
2023-02-09T03:34:59.084Z,-5.26
2023-02-09T03:37:25.913Z,-5.23
2023-02-09T03:39:52.354Z,-5.16
2023-02-09T03:42:19.124Z,-5.38
2023-02-09T03:44:45.498Z,-5.64
2023-02-09T03:47:12.327Z,-5.50
2023-02-09T03:49:40.637Z,-5.33
2023-02-09T03:52:10.804Z,-4.96
2023-02-09T03:54:37.610Z,-5.36
2023-02-09T03:57:04.918Z,-5.22
2023-02-09T03:59:35.305Z,-5.41
2023-02-09T04:02:02.469Z,-5.74
2023-02-09T04:04:28.939Z,-5.65
2023-02-09T04:06:56.181Z,-5.68
2023-02-09T04:09:23.013Z,-5.81
2023-02-09T04:11:49.491Z,-5.70
2023-02-09T04:14:16.641Z,-5.71
2023-02-09T04:16:43.097Z,-5.83
2023-02-09T04:19:09.702Z,-5.88
2023-02-09T04:21:37.922Z,-5.78
2023-02-09T04:24:05.593Z,-5.49
2023-02-09T04:26:32.614Z,-5.69
2023-02-09T04:28:58.992Z,-5.77
2023-02-09T04:31:25.476Z,-5.83
2023-02-09T04:33:51.909Z,-5.70
2023-02-09T04:36:18.395Z,-5.64
2023-02-09T04:38:44.885Z,-5.79
2023-02-09T04:41:11.332Z,-5.86
2023-02-09T04:43:37.704Z,-5.97
2023-02-09T04:46:04.303Z,-5.90
2023-02-09T04:48:31.692Z,-5.86
2023-02-09T04:50:58.214Z,-5.87
2023-02-09T04:53:25.142Z,-5.92
2023-02-09T04:55:52.259Z,-6.09
2023-02-09T04:58:39.147Z,-6.04
2023-02-09T05:01:05.936Z,-6.02
2023-02-09T05:03:32.596Z,-5.95
2023-02-09T05:06:01.743Z,-5.95
2023-02-09T05:08:28.585Z,-5.44
2023-02-09T05:10:55.388Z,-5.10
2023-02-09T05:13:23.156Z,-5.71
2023-02-09T05:15:50.122Z,-5.84
2023-02-09T05:18:16.614Z,-5.86
2023-02-09T05:20:44.128Z,-5.87
2023-02-09T05:23:11.320Z,-5.82
2023-02-09T05:25:37.887Z,-5.86
2023-02-09T05:28:04.862Z,-6.00
2023-02-09T05:30:31.247Z,-5.97
2023-02-09T05:32:58.438Z,-4.92
2023-02-09T05:35:25.226Z,-5.17
2023-02-09T05:37:51.758Z,-5.55
2023-02-09T05:40:18.313Z,-5.78
2023-02-09T05:42:44.658Z,-5.94
2023-02-09T05:45:11.088Z,-6.05
2023-02-09T05:47:37.436Z,-6.11
2023-02-09T05:50:04.280Z,-5.97
2023-02-09T05:52:30.686Z,-6.01
2023-02-09T05:54:57.117Z,-6.13
2023-02-09T05:57:23.483Z,-6.30
2023-02-09T05:59:49.857Z,-6.14
2023-02-09T06:02:16.381Z,-6.07
2023-02-09T06:04:42.802Z,-6.27
2023-02-09T06:07:11.653Z,-6.34
2023-02-09T06:09:38.292Z,-6.27
2023-02-09T06:12:04.870Z,-6.38
2023-02-09T06:14:31.240Z,-6.40
2023-02-09T06:16:57.653Z,-6.28
2023-02-09T06:19:24.197Z,-6.06
2023-02-09T06:21:50.532Z,-6.18
2023-02-09T06:24:17.141Z,-6.20
2023-02-09T06:26:44.102Z,-6.21
2023-02-09T06:29:10.895Z,-5.94
2023-02-09T06:31:38.194Z,-6.16
2023-02-09T06:34:05.695Z,-6.40
2023-02-09T06:36:32.499Z,-6.23
2023-02-09T06:38:58.902Z,-5.84
2023-02-09T06:41:25.550Z,-6.19
2023-02-09T06:43:51.934Z,-6.27
2023-02-09T06:46:18.504Z,-6.32
2023-02-09T06:48:45.052Z,-6.27
2023-02-09T06:51:13.967Z,-6.32
2023-02-09T06:53:42.568Z,-6.43
2023-02-09T06:56:10.284Z,-6.40
2023-02-09T06:58:37.964Z,-6.46
2023-02-09T07:01:09.471Z,-6.35
2023-02-09T07:03:36.560Z,-6.22
2023-02-09T07:06:08.190Z,-6.37
2023-02-09T07:08:35.765Z,-6.27
2023-02-09T07:11:07.318Z,-6.12
2023-02-09T07:13:34.142Z,-6.15
2023-02-09T07:16:01.872Z,-6.19
2023-02-09T07:18:28.272Z,-6.20
2023-02-09T07:20:56.908Z,-6.20
2023-02-09T07:23:24.215Z,-6.05
2023-02-09T07:25:51.241Z,-6.07
2023-02-09T07:28:21.324Z,-6.01
2023-02-09T07:30:50.143Z,-6.02
2023-02-09T07:33:16.870Z,-5.83
2023-02-09T07:35:43.259Z,-5.70
2023-02-09T07:38:09.686Z,-5.50
2023-02-09T07:40:38.241Z,-5.50
2023-02-09T07:43:06.010Z,-5.37
2023-02-09T07:45:33.469Z,-5.22
2023-02-09T07:47:59.869Z,-5.25
2023-02-09T07:50:26.458Z,-5.14
2023-02-09T07:52:54.344Z,-5.06
2023-02-09T07:55:20.792Z,-4.89
2023-02-09T07:57:47.393Z,-4.85
2023-02-09T08:00:14.968Z,-4.69
2023-02-09T08:02:41.418Z,-4.47
2023-02-09T08:05:17.299Z,-4.51
2023-02-09T08:07:43.780Z,-4.53
2023-02-09T08:10:10.158Z,-4.41
2023-02-09T08:12:55.301Z,-4.29
2023-02-09T08:15:23.105Z,-4.20
2023-02-09T08:17:51.968Z,-4.15
2023-02-09T08:20:22.102Z,-4.13
2023-02-09T08:22:52.903Z,-3.89
2023-02-09T08:25:22.560Z,-3.80
2023-02-09T08:27:49.939Z,-3.75
2023-02-09T08:30:17.381Z,-3.67
2023-02-09T08:32:43.888Z,-3.54
2023-02-09T08:35:10.680Z,-3.46
2023-02-09T08:37:37.319Z,-3.26
2023-02-09T08:40:04.126Z,-3.28
2023-02-09T08:42:30.515Z,-3.22
2023-02-09T08:44:56.910Z,-3.24
2023-02-09T08:47:23.345Z,-3.45
2023-02-09T08:49:50.986Z,-3.37
2023-02-09T08:52:18.557Z,-3.52
2023-02-09T08:54:45.013Z,-3.38
2023-02-09T08:57:11.498Z,-3.33
2023-02-09T08:59:37.809Z,-3.11
2023-02-09T09:02:04.167Z,-2.86
2023-02-09T09:04:30.626Z,-2.66
2023-02-09T09:06:57.052Z,-2.65
2023-02-09T09:09:23.491Z,-2.57
2023-02-09T09:11:49.838Z,-2.38
2023-02-09T09:14:16.246Z,-2.27
2023-02-09T09:16:42.706Z,-2.10
2023-02-09T09:19:09.040Z,-2.10
2023-02-09T09:21:35.492Z,-1.99
2023-02-09T09:24:01.825Z,-2.13
2023-02-09T09:26:28.219Z,-1.97
2023-02-09T09:28:54.750Z,-1.63
2023-02-09T09:31:21.235Z,-1.70
2023-02-09T09:33:47.771Z,-1.60
2023-02-09T09:36:14.656Z,-1.57
2023-02-09T09:38:41.573Z,-1.45
2023-02-09T09:41:34.656Z,-1.23
2023-02-09T09:44:03.346Z,-0.92
2023-02-09T09:46:36.782Z,-0.60
2023-02-09T09:49:03.967Z,-1.02
2023-02-09T09:51:46.352Z,-0.83
2023-02-09T09:54:20.464Z,-0.86
2023-02-09T09:56:48.037Z,-0.81
2023-02-09T09:59:23.666Z,-0.74
2023-02-09T10:01:52.496Z,-0.70
2023-02-09T10:04:20.678Z,-0.49
2023-02-09T10:06:56.902Z,-0.48
2023-02-09T10:09:55.831Z,-0.34
2023-02-09T10:12:35.385Z,0.01
2023-02-09T10:15:28.624Z,-0.14
2023-02-09T10:17:59.116Z,0.01
2023-02-09T10:20:47.720Z,0.32
2023-02-09T10:23:39.133Z,0.26
2023-02-09T10:26:08.429Z,0.14
2023-02-09T10:28:44.342Z,0.09
2023-02-09T10:31:19.059Z,0.36
2023-02-09T10:33:50.013Z,0.47
2023-02-09T10:36:26.464Z,-0.02
2023-02-09T10:39:22.376Z,0.03
2023-02-09T10:41:51.810Z,0.15
2023-02-09T10:44:27.380Z,0.36
2023-02-09T10:47:30.252Z,0.29
2023-02-09T10:50:12.470Z,0.47
2023-02-09T10:52:44.059Z,0.69
2023-02-09T10:55:21.970Z,0.83
2023-02-09T10:57:48.712Z,0.78
2023-02-09T11:00:15.023Z,0.81
2023-02-09T11:02:50.506Z,1.15
2023-02-09T11:05:19.874Z,1.36
2023-02-09T11:07:49.052Z,1.28
2023-02-09T11:10:15.954Z,1.63
2023-02-09T11:12:43.451Z,1.70
2023-02-09T11:15:14.610Z,1.91
2023-02-09T11:17:48.182Z,1.70
2023-02-09T11:20:20.222Z,1.63
2023-02-09T11:22:55.602Z,1.77
2023-02-09T11:25:28.983Z,2.08
2023-02-09T11:28:25.174Z,1.81
2023-02-09T11:31:25.252Z,1.83
2023-02-09T11:34:30.531Z,1.97
2023-02-09T11:37:27.817Z,1.92
2023-02-09T11:39:57.261Z,2.46
2023-02-09T11:42:44.117Z,2.17
2023-02-09T11:45:22.116Z,2.10
2023-02-09T11:48:07.977Z,2.35
2023-02-09T11:50:56.470Z,2.71
2023-02-09T11:53:31.876Z,2.70
2023-02-09T11:56:01.703Z,2.88
2023-02-09T11:58:42.795Z,2.53
2023-02-09T12:01:38.872Z,2.23
2023-02-09T12:04:38.218Z,2.35
2023-02-09T12:07:49.338Z,2.32
2023-02-09T12:10:33.665Z,2.46
2023-02-09T12:13:19.121Z,2.85
2023-02-09T12:15:56.369Z,2.96
2023-02-09T12:18:25.853Z,3.04
2023-02-09T12:21:01.428Z,2.93
2023-02-09T12:23:44.220Z,3.27
2023-02-09T12:26:16.333Z,3.33
2023-02-09T12:29:04.433Z,3.26
2023-02-09T12:31:51.791Z,3.57
2023-02-09T12:34:27.450Z,3.41
2023-02-09T12:37:16.537Z,3.64
2023-02-09T12:40:03.715Z,3.49
2023-02-09T12:42:39.133Z,3.59
2023-02-09T12:45:38.373Z,3.91
2023-02-09T12:48:07.510Z,3.73
2023-02-09T12:50:42.962Z,3.45
2023-02-09T12:53:21.468Z,3.85
2023-02-09T12:56:09.260Z,3.50
2023-02-09T12:58:44.717Z,3.63
2023-02-09T13:01:13.437Z,3.49
2023-02-09T13:04:01.686Z,3.55
2023-02-09T13:06:44.258Z,3.67
2023-02-09T13:09:22.382Z,3.58
2023-02-09T13:11:59.952Z,3.55
2023-02-09T13:14:26.526Z,3.83
2023-02-09T13:16:52.885Z,4.07
2023-02-09T13:20:10.508Z,4.19
2023-02-09T13:23:10.775Z,4.29
2023-02-09T13:25:40.859Z,4.26
2023-02-09T13:28:16.977Z,4.20
2023-02-09T13:30:44.470Z,4.55
2023-02-09T13:33:38.663Z,4.34
2023-02-09T13:36:25.311Z,4.49
2023-02-09T13:38:52.729Z,4.38
2023-02-09T13:41:26.253Z,4.49
2023-02-09T13:43:52.695Z,4.72
2023-02-09T13:46:31.855Z,4.29
2023-02-09T13:49:25.485Z,4.39
2023-02-09T13:52:12.874Z,4.35
2023-02-09T13:54:40.989Z,4.46
2023-02-09T13:57:29.579Z,4.57
2023-02-09T14:00:02.805Z,4.54
2023-02-09T14:02:29.525Z,4.56
2023-02-09T14:05:01.852Z,4.63
2023-02-09T14:07:32.919Z,4.62
2023-02-09T14:10:02.954Z,4.80
2023-02-09T14:12:52.251Z,4.60
2023-02-09T14:15:42.830Z,4.66
2023-02-09T14:21:24.530Z,4.68
2023-02-09T14:23:57.972Z,4.73
2023-02-09T14:26:26.941Z,4.68
2023-02-09T14:29:02.393Z,4.49
2023-02-09T14:31:28.814Z,4.58
2023-02-09T14:33:56.662Z,4.67
2023-02-09T14:36:32.436Z,4.63
2023-02-09T14:39:13.211Z,4.57
2023-02-09T14:41:39.777Z,4.58
2023-02-09T14:44:06.074Z,4.83
2023-02-09T14:46:53.437Z,4.63
2023-02-09T14:49:21.002Z,4.78
2023-02-09T14:51:49.930Z,4.74
2023-02-09T14:54:30.979Z,4.80
2023-02-09T14:56:58.817Z,4.85
2023-02-09T14:59:25.312Z,4.81
2023-02-09T15:01:54.012Z,4.88
2023-02-09T15:04:20.748Z,4.85
2023-02-09T15:06:49.500Z,4.71
2023-02-09T15:09:26.652Z,4.89
2023-02-09T15:12:04.962Z,4.88
2023-02-09T15:14:42.559Z,4.71
2023-02-09T15:17:14.953Z,4.90
2023-02-09T15:19:42.194Z,4.90
2023-02-09T15:22:08.976Z,4.94
2023-02-09T15:24:35.870Z,4.96
2023-02-09T15:27:02.731Z,4.87
2023-02-09T15:29:30.452Z,4.89
2023-02-09T15:31:56.866Z,4.78
2023-02-09T15:34:23.283Z,4.56
2023-02-09T15:36:49.721Z,4.49
2023-02-09T15:39:23.221Z,4.49
2023-02-09T15:42:08.182Z,4.39
2023-02-09T15:44:52.962Z,4.36
2023-02-09T15:47:37.808Z,4.22
2023-02-09T15:50:04.423Z,4.15
2023-02-09T15:52:30.907Z,4.14
2023-02-09T15:54:57.365Z,3.99
2023-02-09T15:57:25.229Z,4.11
2023-02-09T15:59:51.793Z,4.04
2023-02-09T16:02:19.541Z,4.19
2023-02-09T16:04:45.916Z,3.77
2023-02-09T16:07:16.324Z,3.68
2023-02-09T16:09:43.555Z,3.68
2023-02-09T16:12:11.625Z,3.71
2023-02-09T16:14:38.285Z,3.64
2023-02-09T16:17:05.404Z,3.48
2023-02-09T16:19:31.762Z,3.35
2023-02-09T16:22:02.965Z,3.44
2023-02-09T16:24:33.626Z,3.37
2023-02-09T16:27:02.951Z,3.41
2023-02-09T16:29:29.449Z,3.10
2023-02-09T16:31:55.910Z,3.14
2023-02-09T16:34:22.337Z,3.06
2023-02-09T16:36:49.384Z,3.01
2023-02-09T16:39:21.110Z,2.87
2023-02-09T16:41:49.130Z,2.71
2023-02-09T16:44:25.801Z,2.69
2023-02-09T16:46:57.313Z,2.46
2023-02-09T16:50:00.583Z,2.52
2023-02-09T16:52:27.993Z,2.27
2023-02-09T16:54:59.870Z,2.27
2023-02-09T16:57:28.543Z,2.33
2023-02-09T16:59:55.371Z,2.36
2023-02-09T17:02:30.038Z,2.39
2023-02-09T17:04:58.019Z,2.45
2023-02-09T17:07:35.625Z,2.28
2023-02-09T17:10:14.143Z,2.27
2023-02-09T17:12:40.565Z,2.22
2023-02-09T17:15:08.863Z,2.03
2023-02-09T17:17:37.930Z,2.11
2023-02-09T17:20:04.732Z,2.21
2023-02-09T17:22:31.231Z,2.10
2023-02-09T17:24:57.688Z,2.06
2023-02-09T17:27:24.076Z,1.91
2023-02-09T17:29:50.468Z,2.17
2023-02-09T17:32:17.590Z,1.90
2023-02-09T17:34:44.030Z,1.88
2023-02-09T17:37:14.600Z,1.69
2023-02-09T17:39:41.131Z,1.56
2023-02-09T17:42:20.639Z,1.43
2023-02-09T17:44:47.155Z,1.56
2023-02-09T17:47:19.439Z,1.48
2023-02-09T17:49:46.274Z,1.57
2023-02-09T17:52:17.868Z,1.40
2023-02-09T17:54:44.312Z,1.39
2023-02-09T17:57:15.321Z,1.25
2023-02-09T17:59:42.007Z,1.23
2023-02-09T18:02:17.210Z,1.26
2023-02-09T18:04:44.004Z,1.27
2023-02-09T18:07:10.699Z,1.46
2023-02-09T18:09:37.148Z,1.10
2023-02-09T18:12:09.967Z,1.07
2023-02-09T18:14:36.645Z,1.13
2023-02-09T18:17:03.502Z,1.02
2023-02-09T18:19:30.162Z,0.98
2023-02-09T18:21:59.822Z,0.97
2023-02-09T18:24:30.234Z,0.93
2023-02-09T18:26:57.369Z,0.76
2023-02-09T18:29:28.899Z,0.64
2023-02-09T18:32:00.103Z,0.56
2023-02-09T18:34:27.666Z,0.58
2023-02-09T18:36:54.247Z,0.56
2023-02-09T18:39:20.652Z,0.52
2023-02-09T18:41:53.784Z,0.53
2023-02-09T18:44:24.379Z,0.50
2023-02-09T18:46:50.918Z,0.35
2023-02-09T18:49:17.512Z,0.36
2023-02-09T18:51:43.900Z,0.56
2023-02-09T18:54:10.289Z,0.45
2023-02-09T18:56:36.814Z,0.55
2023-02-09T18:59:03.192Z,0.77
2023-02-09T19:01:29.655Z,0.76
2023-02-09T19:03:56.200Z,0.65
2023-02-09T19:06:25.242Z,0.51
2023-02-09T19:08:52.347Z,0.43
2023-02-09T19:11:21.346Z,0.33
2023-02-09T19:14:08.087Z,0.11
2023-02-09T19:16:36.527Z,0.04
2023-02-09T19:19:03.100Z,0.27
2023-02-09T19:21:29.717Z,0.46
2023-02-09T19:23:56.134Z,0.20
2023-02-09T19:26:22.715Z,0.05
2023-02-09T19:28:49.092Z,-0.09
2023-02-09T19:31:17.508Z,-0.12
2023-02-09T19:33:44.384Z,-0.22
2023-02-09T19:36:10.777Z,-0.28
2023-02-09T19:38:37.185Z,-0.51
2023-02-09T19:41:11.586Z,-0.43
2023-02-09T19:43:41.173Z,-0.58
2023-02-09T19:46:09.906Z,-0.55
2023-02-09T19:48:38.112Z,-0.65
2023-02-09T19:51:04.853Z,-0.65
2023-02-09T19:53:31.564Z,-0.55
2023-02-09T19:55:58.105Z,-0.65
2023-02-09T19:58:24.466Z,-0.63
2023-02-09T20:00:51.973Z,-0.65
2023-02-09T20:03:18.907Z,-0.79
2023-02-09T20:05:46.077Z,-0.81
2023-02-09T20:08:15.857Z,-1.04
2023-02-09T20:10:44.072Z,-0.93
2023-02-09T20:13:13.037Z,-0.98
2023-02-09T20:15:44.455Z,-1.12
2023-02-09T20:18:12.723Z,-1.00
2023-02-09T20:20:41.792Z,-1.10
2023-02-09T20:23:09.313Z,-1.29
2023-02-09T20:25:35.722Z,-1.16
2023-02-09T20:28:02.155Z,-1.27
2023-02-09T20:30:28.824Z,-1.36
2023-02-09T20:32:55.218Z,-1.33
2023-02-09T20:35:21.624Z,-1.34
2023-02-09T20:37:48.080Z,-1.40
2023-02-09T20:40:14.564Z,-1.41
2023-02-09T20:42:59.605Z,-1.46
2023-02-09T20:45:44.751Z,-1.68
2023-02-09T20:48:11.265Z,-1.69
2023-02-09T20:50:37.651Z,-1.67
2023-02-09T20:53:04.110Z,-1.70
2023-02-09T20:55:30.729Z,-1.86
2023-02-09T20:57:57.470Z,-1.84
2023-02-09T21:00:24.034Z,-1.97
2023-02-09T21:02:50.543Z,-2.13
2023-02-09T21:05:17.120Z,-2.11
2023-02-09T21:07:43.728Z,-1.92
2023-02-09T21:10:12.774Z,-1.92
2023-02-09T21:12:39.491Z,-1.97
2023-02-09T21:15:06.441Z,-2.23
2023-02-09T21:17:32.804Z,-2.08
2023-02-09T21:19:59.331Z,-2.12
2023-02-09T21:22:25.716Z,-2.23
2023-02-09T21:24:52.131Z,-2.36
2023-02-09T21:27:19.197Z,-2.32
2023-02-09T21:29:45.666Z,-2.40
2023-02-09T21:32:12.127Z,-2.34
2023-02-09T21:34:38.675Z,-2.36
2023-02-09T21:37:07.957Z,-2.45
2023-02-09T21:39:34.538Z,-2.47
2023-02-09T21:42:19.527Z,-2.65
2023-02-09T21:44:45.917Z,-2.70
2023-02-09T21:47:12.257Z,-2.65
2023-02-09T21:49:38.679Z,-2.65
2023-02-09T21:52:05.932Z,-2.65
2023-02-09T21:54:33.870Z,-2.72
2023-02-09T21:57:01.426Z,-2.80
2023-02-09T21:59:28.567Z,-2.93
2023-02-09T22:01:55.366Z,-2.93
2023-02-09T22:04:21.872Z,-2.93
2023-02-09T22:06:48.528Z,-2.89
2023-02-09T22:09:15.756Z,-2.88
2023-02-09T22:11:42.151Z,-2.99
2023-02-09T22:14:08.556Z,-2.96
2023-02-09T22:16:35.043Z,-3.01
2023-02-09T22:19:01.597Z,-3.00
2023-02-09T22:21:28.008Z,-3.12
2023-02-09T22:23:54.551Z,-3.09
2023-02-09T22:26:21.177Z,-3.02
2023-02-09T22:28:47.751Z,-2.93
2023-02-09T22:31:19.325Z,-2.72
2023-02-09T22:33:45.899Z,-2.84
2023-02-09T22:36:17.904Z,-2.97
2023-02-09T22:38:44.751Z,-3.17
2023-02-09T22:41:22.196Z,-3.20
2023-02-09T22:43:58.335Z,-3.21
2023-02-09T22:46:30.776Z,-3.37
2023-02-09T22:48:59.903Z,-3.29
2023-02-09T22:51:30.154Z,-3.33
2023-02-09T22:53:57.961Z,-3.52
2023-02-09T22:56:25.531Z,-3.58
2023-02-09T22:58:56.538Z,-3.42
2023-02-09T23:01:23.487Z,-3.35
2023-02-09T23:03:50.089Z,-3.43
2023-02-09T23:06:20.012Z,-3.44
2023-02-09T23:08:46.926Z,-3.67
2023-02-09T23:11:16.067Z,-3.62
2023-02-09T23:13:43.090Z,-3.65
2023-02-09T23:16:25.868Z,-3.90
2023-02-09T23:18:58.241Z,-3.77
2023-02-09T23:21:27.747Z,-3.78
2023-02-09T23:23:54.298Z,-3.66
2023-02-09T23:26:21.387Z,-3.71
2023-02-09T23:28:48.436Z,-3.69
2023-02-09T23:31:20.683Z,-3.71
2023-02-09T23:33:47.149Z,-3.66
2023-02-09T23:36:16.472Z,-3.76
2023-02-09T23:38:44.601Z,-3.69
2023-02-09T23:41:16.528Z,-3.62
2023-02-09T23:43:43.385Z,-3.70
2023-02-09T23:46:14.868Z,-3.67
2023-02-09T23:48:41.441Z,-3.64
2023-02-09T23:51:11.467Z,-3.70
2023-02-09T23:53:37.859Z,-3.70
2023-02-09T23:56:04.629Z,-3.89
2023-02-09T23:58:38.712Z,-3.82
